createdAt,value
2022-07-27T00:01:00.347Z,98123.12
2022-07-27T00:03:27.233Z,98126.39
2022-07-27T00:05:53.786Z,98126.89
2022-07-27T00:08:20.856Z,98124.02
2022-07-27T00:10:48.025Z,98122.83
2022-07-27T00:13:14.719Z,98126.41
2022-07-27T00:15:41.653Z,98123.00
2022-07-27T00:18:08.377Z,98118.61
2022-07-27T00:20:35.673Z,98116.61
2022-07-27T00:23:02.566Z,98114.48
2022-07-27T00:25:29.165Z,98115.54
2022-07-27T00:27:56.635Z,98116.11
2022-07-27T00:30:24.149Z,98115.95
2022-07-27T00:32:51.338Z,98115.26
2022-07-27T00:35:18.697Z,98114.77
2022-07-27T00:37:45.337Z,98116.48
2022-07-27T00:40:12.906Z,98112.46
2022-07-27T00:42:39.474Z,98113.30
2022-07-27T00:45:06.827Z,98116.40
2022-07-27T00:47:34.069Z,98119.15
2022-07-27T00:50:01.120Z,98120.82
2022-07-27T00:52:28.883Z,98120.58
2022-07-27T00:54:55.879Z,98124.15
2022-07-27T00:57:23.943Z,98123.45
2022-07-27T00:59:50.551Z,98126.69
2022-07-27T01:02:19.730Z,98124.54
2022-07-27T01:04:50.022Z,98124.49
2022-07-27T01:07:22.440Z,98133.11
2022-07-27T01:09:50.659Z,98133.48
2022-07-27T01:12:19.572Z,98130.54
2022-07-27T01:14:50.119Z,98131.69
2022-07-27T01:17:17.937Z,98130.77
2022-07-27T01:19:44.787Z,98133.36
2022-07-27T01:22:12.860Z,98131.73
2022-07-27T01:24:40.149Z,98134.31
2022-07-27T01:27:07.230Z,98136.36
2022-07-27T01:29:35.733Z,98135.94
2022-07-27T01:32:03.746Z,98133.95
2022-07-27T01:34:31.095Z,98128.55
2022-07-27T01:36:57.738Z,98128.40
2022-07-27T01:39:24.478Z,98132.31
2022-07-27T01:41:51.121Z,98132.67
2022-07-27T01:44:17.746Z,98127.76
2022-07-27T01:46:44.458Z,98125.14
2022-07-27T01:49:11.667Z,98125.36
2022-07-27T01:51:38.505Z,98122.09
2022-07-27T01:54:05.353Z,98117.95
2022-07-27T01:56:32.092Z,98119.37
2022-07-27T01:58:58.940Z,98116.85
2022-07-27T02:01:26.014Z,98112.44
2022-07-27T02:03:53.149Z,98115.35
2022-07-27T02:06:19.726Z,98124.34
2022-07-27T02:08:46.567Z,98126.20
2022-07-27T02:11:13.133Z,98122.40
2022-07-27T02:13:43.137Z,98117.64
2022-07-27T02:16:17.179Z,98116.73
2022-07-27T02:18:45.588Z,98104.14
2022-07-27T02:21:15.932Z,98100.20
2022-07-27T02:23:44.006Z,98100.04
2022-07-27T02:26:11.239Z,98096.48
2022-07-27T02:28:38.026Z,98096.16
2022-07-27T02:31:05.091Z,98101.46
2022-07-27T02:33:31.716Z,98108.26
2022-07-27T02:35:58.529Z,98109.74
2022-07-27T02:38:25.228Z,98104.58
2022-07-27T02:40:51.969Z,98102.09
2022-07-27T02:43:18.534Z,98099.13
2022-07-27T02:45:46.526Z,98102.00
2022-07-27T02:48:13.639Z,98107.12
2022-07-27T02:50:40.363Z,98115.69
2022-07-27T02:53:06.937Z,98116.38
2022-07-27T02:55:33.550Z,98108.35
2022-07-27T02:58:00.190Z,98113.75
2022-07-27T03:00:26.716Z,98120.35
2022-07-27T03:02:53.257Z,98125.34
2022-07-27T03:05:20.053Z,98131.20
2022-07-27T03:07:46.592Z,98135.10
2022-07-27T03:10:13.321Z,98138.91
2022-07-27T03:12:39.936Z,98140.01
2022-07-27T03:15:07.137Z,98138.48
2022-07-27T03:17:33.665Z,98139.73
2022-07-27T03:20:00.317Z,98147.63
2022-07-27T03:22:27.026Z,98150.98
2022-07-27T03:24:53.681Z,98153.09
2022-07-27T03:27:20.314Z,98150.81
2022-07-27T03:29:46.955Z,98143.80
2022-07-27T03:32:13.593Z,98143.40
2022-07-27T03:34:40.184Z,98144.33
2022-07-27T03:37:06.910Z,98149.81
2022-07-27T03:39:33.412Z,98152.24
2022-07-27T03:41:59.955Z,98151.11
2022-07-27T03:44:26.532Z,98154.35
2022-07-27T03:46:53.177Z,98152.73
2022-07-27T03:49:20.016Z,98146.77
2022-07-27T03:51:46.702Z,98148.52
2022-07-27T03:54:13.682Z,98145.48
2022-07-27T03:56:40.433Z,98146.16
2022-07-27T03:59:07.169Z,98145.63
2022-07-27T04:01:33.874Z,98143.52
2022-07-27T04:04:00.661Z,98139.30
2022-07-27T04:06:27.540Z,98143.46
2022-07-27T04:08:59.638Z,98149.40
2022-07-27T04:11:35.177Z,98146.94
2022-07-27T04:14:04.985Z,98146.34
2022-07-27T04:16:35.923Z,98149.75
2022-07-27T04:19:03.046Z,98153.61
2022-07-27T04:21:33.817Z,98155.69
2022-07-27T04:24:02.077Z,98153.70
2022-07-27T04:26:29.557Z,98155.23
2022-07-27T04:28:56.779Z,98158.50
2022-07-27T04:31:24.347Z,98163.68
2022-07-27T04:33:51.198Z,98166.39
2022-07-27T04:36:18.047Z,98164.45
2022-07-27T04:38:44.623Z,98167.89
2022-07-27T04:41:11.347Z,98164.05
2022-07-27T04:43:38.082Z,98163.38
2022-07-27T04:46:05.491Z,98166.34
2022-07-27T04:48:33.590Z,98170.84
2022-07-27T04:51:00.535Z,98170.19
2022-07-27T04:53:27.419Z,98169.63
2022-07-27T04:55:54.267Z,98167.62
2022-07-27T04:58:20.808Z,98159.48
2022-07-27T05:00:47.808Z,98155.45
2022-07-27T05:03:15.253Z,98156.09
2022-07-27T05:05:50.169Z,98157.84
2022-07-27T05:08:18.234Z,98159.02
2022-07-27T05:10:45.206Z,98159.20
2022-07-27T05:13:12.235Z,98157.55
2022-07-27T05:15:55.293Z,98153.38
2022-07-27T05:18:23.533Z,98155.69
2022-07-27T05:20:50.387Z,98158.72
2022-07-27T05:23:18.275Z,98162.25
2022-07-27T05:25:44.972Z,98164.41
2022-07-27T05:28:12.516Z,98165.99
2022-07-27T05:30:39.334Z,98173.04
2022-07-27T05:33:06.050Z,98174.00
2022-07-27T05:35:32.803Z,98176.59
2022-07-27T05:37:59.748Z,98180.67
2022-07-27T05:40:26.806Z,98175.69
2022-07-27T05:42:53.541Z,98174.55
2022-07-27T05:45:20.295Z,98170.20
2022-07-27T05:47:47.545Z,98172.92
2022-07-27T05:50:15.576Z,98170.79
2022-07-27T05:52:43.288Z,98165.46
2022-07-27T05:55:11.292Z,98162.92
2022-07-27T05:57:38.853Z,98165.49
2022-07-27T06:00:06.793Z,98169.36
2022-07-27T06:02:33.367Z,98171.64
2022-07-27T06:04:59.956Z,98175.04
2022-07-27T06:07:27.125Z,98178.90
2022-07-27T06:09:53.665Z,98177.23
2022-07-27T06:12:20.451Z,98178.14
2022-07-27T06:14:51.045Z,98176.11
2022-07-27T06:17:18.306Z,98180.09
2022-07-27T06:19:45.093Z,98182.21
2022-07-27T06:22:11.728Z,98180.34
2022-07-27T06:24:38.430Z,98180.56
2022-07-27T06:27:05.076Z,98185.27
2022-07-27T06:29:32.133Z,98182.13
2022-07-27T06:31:59.034Z,98182.83
2022-07-27T06:34:26.313Z,98181.39
2022-07-27T06:36:53.020Z,98180.35
2022-07-27T06:39:19.724Z,98179.38
2022-07-27T06:41:46.635Z,98179.14
2022-07-27T06:44:13.424Z,98174.16
2022-07-27T06:46:41.938Z,98171.67
2022-07-27T06:49:09.388Z,98174.19
2022-07-27T06:51:37.290Z,98172.51
2022-07-27T06:54:04.167Z,98172.92
2022-07-27T06:56:31.848Z,98174.46
2022-07-27T06:58:58.671Z,98170.48
2022-07-27T07:01:25.901Z,98167.48
2022-07-27T07:03:52.655Z,98168.39
2022-07-27T07:06:19.310Z,98177.53
2022-07-27T07:08:45.823Z,98183.02
2022-07-27T07:11:12.418Z,98180.44
2022-07-27T07:13:43.240Z,98182.27
2022-07-27T07:16:11.570Z,98183.02
2022-07-27T07:18:38.322Z,98181.64
2022-07-27T07:21:05.108Z,98182.88
2022-07-27T07:23:31.674Z,98181.25
2022-07-27T07:25:58.309Z,98179.92
2022-07-27T07:28:24.815Z,98179.95
2022-07-27T07:30:51.497Z,98182.27
2022-07-27T07:33:18.080Z,98180.23
2022-07-27T07:36:12.039Z,98182.08
2022-07-27T07:38:31.280Z,98184.70
2022-07-27T07:40:57.918Z,98186.00
2022-07-27T07:43:24.473Z,98186.53
2022-07-27T07:45:52.213Z,98190.38
2022-07-27T07:48:21.130Z,98187.24
2022-07-27T07:50:52.119Z,98190.42
2022-07-27T07:53:24.344Z,98195.69
2022-07-27T07:55:54.439Z,98193.20
2022-07-27T07:58:20.886Z,98194.10
2022-07-27T08:00:48.202Z,98193.73
2022-07-27T08:03:14.997Z,98194.05
2022-07-27T08:05:41.564Z,98198.70
2022-07-27T08:08:08.136Z,98207.63
2022-07-27T08:10:34.696Z,98208.69
2022-07-27T08:13:01.562Z,98212.45
2022-07-27T08:15:30.096Z,98222.39
2022-07-27T08:18:02.421Z,98224.54
2022-07-27T08:20:29.174Z,98224.35
2022-07-27T08:22:55.765Z,98223.87
2022-07-27T08:25:22.555Z,98223.29
2022-07-27T08:27:49.236Z,98226.27
2022-07-27T08:30:15.849Z,98228.73
2022-07-27T08:32:54.455Z,98230.02
2022-07-27T08:35:21.848Z,98220.40
2022-07-27T08:37:48.769Z,98219.48
2022-07-27T08:40:46.752Z,98214.70
2022-07-27T08:43:05.178Z,98213.95
2022-07-27T08:45:33.627Z,98209.20
2022-07-27T08:48:00.554Z,98208.54
2022-07-27T08:50:27.574Z,98206.52
2022-07-27T08:52:58.815Z,98206.02
2022-07-27T08:55:26.802Z,98213.30
2022-07-27T08:57:54.938Z,98220.80
2022-07-27T09:00:23.497Z,98219.01
2022-07-27T09:02:50.753Z,98217.07
2022-07-27T09:05:17.463Z,98218.00
2022-07-27T09:07:44.205Z,98221.36
2022-07-27T09:10:12.157Z,98227.14
2022-07-27T09:12:39.126Z,98222.03
2022-07-27T09:15:12.239Z,98220.77
2022-07-27T09:17:49.948Z,98217.21
2022-07-27T09:20:20.862Z,98210.45
2022-07-27T09:22:53.130Z,98207.23
2022-07-27T09:25:52.027Z,98210.69
2022-07-27T09:28:12.533Z,98209.03
2022-07-27T09:30:43.094Z,98205.77
2022-07-27T09:33:09.923Z,98204.96
2022-07-27T09:35:36.588Z,98206.36
2022-07-27T09:38:23.784Z,98212.21
2022-07-27T09:41:01.688Z,98218.76
2022-07-27T09:46:15.402Z,98218.03
2022-07-27T09:48:42.367Z,98214.70
2022-07-27T09:51:57.358Z,98215.90
2022-07-27T09:54:06.213Z,98219.06
2022-07-27T09:56:33.292Z,98216.68
2022-07-27T09:59:02.371Z,98217.86
2022-07-27T10:01:35.534Z,98220.88
2022-07-27T10:04:07.275Z,98222.61
2022-07-27T10:06:53.535Z,98225.73
2022-07-27T10:09:22.060Z,98220.45
2022-07-27T10:11:49.341Z,98225.84
2022-07-27T10:14:16.483Z,98221.48
2022-07-27T10:16:47.558Z,98227.08
2022-07-27T10:19:15.666Z,98234.30
2022-07-27T10:21:46.343Z,98233.34
2022-07-27T10:24:30.048Z,98231.63
2022-07-27T10:26:56.623Z,98225.65
2022-07-27T10:29:24.725Z,98219.50
2022-07-27T10:31:54.046Z,98214.52
2022-07-27T10:34:40.245Z,98211.96
2022-07-27T10:37:11.306Z,98212.86
2022-07-27T10:39:40.852Z,98215.20
2022-07-27T10:42:27.442Z,98214.86
2022-07-27T10:45:15.145Z,98214.72
2022-07-27T10:47:52.822Z,98213.94
2022-07-27T10:50:25.519Z,98215.41
2022-07-27T10:52:57.305Z,98211.96
2022-07-27T10:55:30.155Z,98207.60
2022-07-27T10:57:58.260Z,98204.46
2022-07-27T11:00:54.143Z,98206.46
2022-07-27T11:03:22.293Z,98207.80
2022-07-27T11:06:31.360Z,98205.12
2022-07-27T11:09:38.650Z,98205.48
2022-07-27T11:11:43.837Z,98205.09
2022-07-27T11:14:10.690Z,98206.09
2022-07-27T11:16:54.898Z,98204.84
2022-07-27T11:19:23.410Z,98204.55
2022-07-27T11:21:50.272Z,98200.88
2022-07-27T11:24:17.570Z,98198.14
2022-07-27T11:26:46.384Z,98197.13
2022-07-27T11:29:15.709Z,98185.17
2022-07-27T11:31:55.417Z,98186.06
2022-07-27T11:34:28.260Z,98190.13
2022-07-27T11:36:55.133Z,98187.55
2022-07-27T11:39:54.335Z,98186.14
2022-07-27T11:42:12.374Z,98183.54
2022-07-27T11:44:40.932Z,98179.28
2022-07-27T11:47:08.428Z,98184.64
2022-07-27T11:49:35.350Z,98179.53
2022-07-27T11:52:04.740Z,98175.35
2022-07-27T11:54:35.122Z,98178.70
2022-07-27T11:57:06.038Z,98172.54
2022-07-27T11:59:34.656Z,98170.30
2022-07-27T12:02:05.248Z,98169.90
2022-07-27T12:04:37.184Z,98176.20
2022-07-27T12:07:28.071Z,98169.34
2022-07-27T12:09:57.797Z,98166.57
2022-07-27T12:12:26.726Z,98161.25
2022-07-27T12:15:16.693Z,98159.79
2022-07-27T12:17:57.293Z,98159.56
2022-07-27T12:20:33.052Z,98161.81
2022-07-27T12:23:06.104Z,98161.86
2022-07-27T12:25:32.855Z,98161.02
2022-07-27T12:28:05.601Z,98155.34
2022-07-27T12:30:38.072Z,98152.41
2022-07-27T12:33:24.360Z,98154.98
2022-07-27T12:35:51.353Z,98150.24
2022-07-27T12:38:18.477Z,98147.86
2022-07-27T12:40:55.485Z,98149.50
2022-07-27T12:43:26.899Z,98146.29
2022-07-27T12:45:55.240Z,98142.26
2022-07-27T12:48:27.859Z,98141.77
2022-07-27T12:51:06.092Z,98140.45
2022-07-27T12:53:34.840Z,98145.06
2022-07-27T12:56:05.687Z,98149.23
2022-07-27T12:58:32.661Z,98151.35
2022-07-27T13:00:59.300Z,98149.52
2022-07-27T13:03:26.148Z,98153.47
2022-07-27T13:05:52.801Z,98153.27
2022-07-27T13:08:20.064Z,98154.21
2022-07-27T13:10:46.598Z,98152.35
2022-07-27T13:13:13.119Z,98148.38
2022-07-27T13:15:39.776Z,98148.95
2022-07-27T13:18:08.344Z,98147.67
2022-07-27T13:20:35.896Z,98145.45
2022-07-27T13:23:02.409Z,98140.77
2022-07-27T13:25:29.113Z,98139.30
2022-07-27T13:27:55.708Z,98137.08
2022-07-27T13:30:22.583Z,98137.36
2022-07-27T13:32:49.322Z,98135.17
2022-07-27T13:35:16.305Z,98132.33
2022-07-27T13:37:43.433Z,98129.95
2022-07-27T13:40:10.588Z,98133.05
2022-07-27T13:42:38.078Z,98128.66
2022-07-27T13:45:11.391Z,98127.20
2022-07-27T13:47:40.901Z,98121.73
2022-07-27T13:50:17.256Z,98120.69
2022-07-27T13:52:45.896Z,98122.11
2022-07-27T13:55:13.478Z,98123.27
2022-07-27T13:57:40.032Z,98117.09
2022-07-27T14:00:07.444Z,98111.33
2022-07-27T14:02:34.235Z,98106.27
2022-07-27T14:05:01.392Z,98108.52
2022-07-27T14:07:31.102Z,98106.39
2022-07-27T14:09:57.661Z,98108.92
2022-07-27T14:12:24.297Z,98109.21
2022-07-27T14:14:50.946Z,98108.29
2022-07-27T14:17:17.571Z,98111.98
2022-07-27T14:19:44.108Z,98108.64
2022-07-27T14:22:11.036Z,98105.44
2022-07-27T14:24:40.614Z,98110.31
2022-07-27T14:27:07.523Z,98106.60
2022-07-27T14:29:34.566Z,98101.44
2022-07-27T14:32:01.604Z,98106.27
2022-07-27T14:34:28.763Z,98103.70
2022-07-27T14:36:55.836Z,98106.62
2022-07-27T14:39:22.784Z,98103.23
2022-07-27T14:41:49.356Z,98104.59
2022-07-27T14:44:18.799Z,98108.52
2022-07-27T14:46:46.366Z,98107.27
2022-07-27T14:49:13.333Z,98104.20
2022-07-27T14:51:40.096Z,98104.07
2022-07-27T14:54:06.836Z,98105.72
2022-07-27T14:56:33.680Z,98099.05
2022-07-27T14:59:00.372Z,98099.41
2022-07-27T15:01:27.083Z,98100.85
2022-07-27T15:03:53.773Z,98099.20
2022-07-27T15:06:20.523Z,98094.35
2022-07-27T15:08:47.082Z,98095.23
2022-07-27T15:11:13.941Z,98099.25
2022-07-27T15:13:40.990Z,98099.45
2022-07-27T15:16:07.710Z,98097.00
2022-07-27T15:18:38.453Z,98095.00
2022-07-27T15:21:06.723Z,98091.02
2022-07-27T15:23:44.042Z,98091.77
2022-07-27T15:26:11.004Z,98092.07
2022-07-27T15:28:37.585Z,98094.56
2022-07-27T15:31:04.326Z,98094.79
2022-07-27T15:33:31.412Z,98093.14
2022-07-27T15:35:57.945Z,98093.07
2022-07-27T15:38:24.626Z,98092.98
2022-07-27T15:40:51.281Z,98090.18
2022-07-27T15:43:19.268Z,98089.94
2022-07-27T15:45:48.854Z,98084.29
2022-07-27T15:48:17.541Z,98083.23
2022-07-27T15:50:47.758Z,98076.62
2022-07-27T15:53:14.847Z,98073.39
2022-07-27T15:55:43.244Z,98080.78
2022-07-27T15:58:10.894Z,98085.79
2022-07-27T16:00:40.481Z,98084.16
2022-07-27T16:03:07.635Z,98083.48
2022-07-27T16:05:34.495Z,98083.27
2022-07-27T16:08:01.002Z,98076.96
2022-07-27T16:10:27.772Z,98080.58
2022-07-27T16:12:54.441Z,98079.73
2022-07-27T16:15:21.052Z,98081.27
2022-07-27T16:17:47.622Z,98083.66
2022-07-27T16:20:15.364Z,98086.64
2022-07-27T16:22:42.004Z,98087.46
2022-07-27T16:25:08.695Z,98085.10
2022-07-27T16:27:35.336Z,98083.27
2022-07-27T16:30:02.036Z,98081.63
2022-07-27T16:32:28.677Z,98083.55
2022-07-27T16:34:55.322Z,98082.66
2022-07-27T16:37:22.112Z,98083.55
2022-07-27T16:39:48.722Z,98082.04
2022-07-27T16:42:15.463Z,98078.06
2022-07-27T16:44:41.953Z,98079.94
2022-07-27T16:47:08.760Z,98080.34
2022-07-27T16:49:36.930Z,98080.17
2022-07-27T16:52:06.023Z,98074.91
2022-07-27T16:54:37.159Z,98076.48
2022-07-27T16:57:07.095Z,98078.00
2022-07-27T16:59:33.849Z,98076.41
2022-07-27T17:02:00.639Z,98078.95
2022-07-27T17:04:28.213Z,98071.98
2022-07-27T17:06:54.990Z,98075.75
2022-07-27T17:09:21.954Z,98072.95
2022-07-27T17:11:48.552Z,98077.04
2022-07-27T17:14:15.222Z,98080.02
2022-07-27T17:16:42.302Z,98081.58
2022-07-27T17:19:18.746Z,98088.65
2022-07-27T17:21:45.432Z,98094.06
2022-07-27T17:24:12.552Z,98096.64
2022-07-27T17:26:39.226Z,98091.73
2022-07-27T17:29:08.088Z,98092.83
2022-07-27T17:31:34.818Z,98094.73
2022-07-27T17:34:01.689Z,98098.49
2022-07-27T17:36:28.285Z,98098.34
2022-07-27T17:38:55.179Z,98101.02
2022-07-27T17:41:24.989Z,98101.86
2022-07-27T17:43:53.162Z,98103.02
2022-07-27T17:46:20.880Z,98106.48
2022-07-27T17:48:47.707Z,98101.55
2022-07-27T17:51:14.824Z,98107.52
2022-07-27T17:53:41.397Z,98109.02
2022-07-27T17:56:07.978Z,98118.81
2022-07-27T17:58:34.488Z,98116.33
2022-07-27T18:01:01.091Z,98117.02
2022-07-27T18:03:27.938Z,98112.70
2022-07-27T18:05:54.783Z,98119.45
2022-07-27T18:08:21.310Z,98123.16
2022-07-27T18:10:47.890Z,98118.04
2022-07-27T18:13:14.664Z,98120.92
2022-07-27T18:15:41.385Z,98122.29
2022-07-27T18:18:08.435Z,98120.40
2022-07-27T18:20:35.051Z,98120.70
2022-07-27T18:23:02.003Z,98121.11
2022-07-27T18:25:28.743Z,98126.65
2022-07-27T18:27:55.327Z,98123.55
2022-07-27T18:30:22.023Z,98129.15
2022-07-27T18:32:49.376Z,98132.66
2022-07-27T18:35:16.338Z,98132.96
2022-07-27T18:37:43.346Z,98138.07
2022-07-27T18:40:10.800Z,98143.44
2022-07-27T18:42:38.253Z,98150.54
2022-07-27T18:45:11.038Z,98153.35
2022-07-27T18:47:38.105Z,98153.69
2022-07-27T18:50:06.432Z,98154.10
2022-07-27T18:52:33.616Z,98156.27
2022-07-27T18:55:00.639Z,98155.16
2022-07-27T18:57:27.658Z,98148.55
2022-07-27T18:59:54.326Z,98146.59
2022-07-27T19:02:20.965Z,98145.71
2022-07-27T19:04:47.748Z,98151.39
2022-07-27T19:07:15.702Z,98153.38
2022-07-27T19:09:42.950Z,98155.95
2022-07-27T19:12:10.143Z,98159.64
2022-07-27T19:14:37.245Z,98159.39
2022-07-27T19:17:04.203Z,98163.11
2022-07-27T19:19:31.532Z,98167.49
2022-07-27T19:21:58.712Z,98176.02
2022-07-27T19:24:26.068Z,98179.31
2022-07-27T19:26:52.814Z,98179.40
2022-07-27T19:29:19.604Z,98185.71
2022-07-27T19:31:46.298Z,98189.19
2022-07-27T19:34:13.330Z,98193.55
2022-07-27T19:36:39.996Z,98200.29
2022-07-27T19:39:08.154Z,98207.44
2022-07-27T19:41:35.483Z,98209.92
2022-07-27T19:44:02.799Z,98212.60
2022-07-27T19:46:29.951Z,98212.99
2022-07-27T19:48:56.865Z,98216.81
2022-07-27T19:51:23.956Z,98222.30
2022-07-27T19:53:50.787Z,98219.23
2022-07-27T19:56:17.742Z,98214.16
2022-07-27T19:58:45.125Z,98215.09
2022-07-27T20:01:12.171Z,98219.86
2022-07-27T20:03:48.701Z,98220.88
2022-07-27T20:06:21.352Z,98226.85
2022-07-27T20:08:47.873Z,98228.39
2022-07-27T20:11:14.594Z,98233.42
2022-07-27T20:13:41.341Z,98231.42
2022-07-27T20:16:08.080Z,98229.41
2022-07-27T20:18:34.826Z,98234.37
2022-07-27T20:21:01.499Z,98236.34
2022-07-27T20:23:28.041Z,98234.10
2022-07-27T20:25:54.717Z,98232.52
2022-07-27T20:28:21.337Z,98238.59
2022-07-27T20:30:48.103Z,98237.52
2022-07-27T20:33:14.690Z,98237.74
2022-07-27T20:35:41.529Z,98238.70
2022-07-27T20:38:08.173Z,98241.55
2022-07-27T20:40:34.970Z,98246.58
2022-07-27T20:43:01.696Z,98245.48
2022-07-27T20:45:28.477Z,98247.31
2022-07-27T20:47:55.456Z,98248.31
2022-07-27T20:50:22.204Z,98247.31
2022-07-27T20:52:48.946Z,98248.36
2022-07-27T20:55:15.472Z,98245.41
2022-07-27T20:57:42.133Z,98250.11
2022-07-27T21:00:10.033Z,98248.20
2022-07-27T21:02:36.801Z,98252.49
2022-07-27T21:05:04.208Z,98252.02
2022-07-27T21:07:30.853Z,98248.52
2022-07-27T21:09:57.383Z,98249.67
2022-07-27T21:12:24.011Z,98251.66
2022-07-27T21:14:50.571Z,98254.11
2022-07-27T21:17:17.090Z,98251.06
2022-07-27T21:19:43.858Z,98252.16
2022-07-27T21:22:10.605Z,98257.41
2022-07-27T21:24:37.455Z,98255.69
2022-07-27T21:27:05.141Z,98260.05
2022-07-27T21:29:32.072Z,98261.77
2022-07-27T21:31:59.419Z,98264.39
2022-07-27T21:34:26.706Z,98269.27
2022-07-27T21:36:53.320Z,98271.37
2022-07-27T21:39:20.378Z,98266.51
2022-07-27T21:41:47.024Z,98267.67
2022-07-27T21:44:13.967Z,98261.92
2022-07-27T21:46:41.117Z,98264.88
2022-07-27T21:49:07.894Z,98275.29
2022-07-27T21:51:35.429Z,98277.73
2022-07-27T21:54:02.002Z,98282.16
2022-07-27T21:56:28.711Z,98286.14
2022-07-27T21:58:55.761Z,98283.54
2022-07-27T22:01:22.587Z,98286.02
2022-07-27T22:03:49.495Z,98286.09
2022-07-27T22:06:16.215Z,98290.31
2022-07-27T22:08:43.232Z,98294.03
2022-07-27T22:11:10.626Z,98294.85
2022-07-27T22:13:37.294Z,98297.63
2022-07-27T22:16:05.036Z,98302.54
2022-07-27T22:18:32.178Z,98302.83
2022-07-27T22:20:59.329Z,98305.44
2022-07-27T22:23:25.898Z,98308.44
2022-07-27T22:25:52.618Z,98309.89
2022-07-27T22:28:19.252Z,98310.67
2022-07-27T22:31:00.139Z,98318.41
2022-07-27T22:33:34.379Z,98316.80
2022-07-27T22:36:01.438Z,98321.71
2022-07-27T22:38:28.766Z,98323.09
2022-07-27T22:40:56.089Z,98328.66
2022-07-27T22:43:23.165Z,98328.84
2022-07-27T22:45:50.176Z,98328.27
2022-07-27T22:48:16.869Z,98332.57
2022-07-27T22:50:46.605Z,98331.84
2022-07-27T22:53:15.502Z,98333.23
2022-07-27T22:55:44.333Z,98337.81
2022-07-27T22:58:11.008Z,98334.96
2022-07-27T23:00:37.779Z,98342.35
2022-07-27T23:03:04.545Z,98344.02
2022-07-27T23:05:31.662Z,98349.02
2022-07-27T23:07:58.808Z,98351.05
2022-07-27T23:10:30.292Z,98350.34
2022-07-27T23:12:57.519Z,98350.45
2022-07-27T23:15:24.771Z,98352.42
2022-07-27T23:17:51.527Z,98349.63
2022-07-27T23:20:18.215Z,98348.81
2022-07-27T23:22:45.116Z,98350.76
2022-07-27T23:25:16.462Z,98347.65
2022-07-27T23:27:43.321Z,98345.30
2022-07-27T23:30:11.205Z,98348.61
2022-07-27T23:32:38.119Z,98349.08
2022-07-27T23:35:05.272Z,98346.13
2022-07-27T23:37:32.263Z,98346.58
2022-07-27T23:39:58.871Z,98345.10
2022-07-27T23:42:25.923Z,98349.81
2022-07-27T23:44:53.828Z,98352.17
2022-07-27T23:47:21.320Z,98353.24
2022-07-27T23:49:48.817Z,98356.86
2022-07-27T23:52:15.465Z,98355.71
2022-07-27T23:54:42.526Z,98357.14
2022-07-27T23:57:09.132Z,98356.48
2022-07-27T23:59:36.147Z,98356.02
